Terminal Aerodrome Forecast
Issued by NWS

Home | Current Version | Previous Version | Text Only | Print | Product List | Glossary On
Versions: 1 2 3 4 5 6 7 8 9 10 11 12
000
FTAK31 PAJN 182300
TAFAKT
TAF
PAKT 182320Z 1900/1924 14010KT P6SM SCT035 OVC070
     FM190600 14010KT P6SM VCSH BKN030 OVC050
     FM191000 15010KT P6SM -RA BKN030 OVC050
     FM191500 15015KT 6SM -RA BKN025 OVC050
      AMD LTD TO CLD VIS AND WIND 1906/1915=

USA.gov is the U.S. government's official web portal to all federal, state and local government web resources and services.